sensor_id;sensor_type;location;lat;lon;timestamp;temperature;humidity
14749;DHT22;7466;53.574;9.976;2023-04-15T00:02:14;7.50;99.90
14749;DHT22;7466;53.574;9.976;2023-04-15T00:04:43;7.60;99.90
14749;DHT22;7466;53.574;9.976;2023-04-15T00:07:09;7.60;99.90
14749;DHT22;7466;53.574;9.976;2023-04-15T00:09:36;7.60;99.90
14749;DHT22;7466;53.574;9.976;2023-04-15T00:12:04;7.60;99.90
14749;DHT22;7466;53.574;9.976;2023-04-15T00:14:32;7.50;99.90
14749;DHT22;7466;53.574;9.976;2023-04-15T00:17:00;7.60;99.90
14749;DHT22;7466;53.574;9.976;2023-04-15T00:19:27;7.40;99.90
14749;DHT22;7466;53.574;9.976;2023-04-15T00:21:54;7.50;99.90
14749;DHT22;7466;53.574;9.976;2023-04-15T00:24:21;7.40;99.90
14749;DHT22;7466;53.574;9.976;2023-04-15T00:26:47;7.40;99.90
14749;DHT22;7466;53.574;9.976;2023-04-15T00:29:14;7.30;99.90
14749;DHT22;7466;53.574;9.976;2023-04-15T00:31:43;7.30;99.90
14749;DHT22;7466;53.574;9.976;2023-04-15T00:34:10;7.30;99.90
14749;DHT22;7466;53.574;9.976;2023-04-15T00:36:37;7.30;99.90
14749;DHT22;7466;53.574;9.976;2023-04-15T00:39:05;7.30;99.90
14749;DHT22;7466;53.574;9.976;2023-04-15T00:41:31;7.40;99.90
14749;DHT22;7466;53.574;9.976;2023-04-15T00:43:59;7.40;99.90
14749;DHT22;7466;53.574;9.976;2023-04-15T00:46:28;7.30;99.90
14749;DHT22;7466;53.574;9.976;2023-04-15T00:48:57;7.30;99.90
14749;DHT22;7466;53.574;9.976;2023-04-15T00:51:25;7.40;99.90
14749;DHT22;7466;53.574;9.976;2023-04-15T00:53:52;7.40;99.90
14749;DHT22;7466;53.574;9.976;2023-04-15T00:56:19;7.30;99.90
14749;DHT22;7466;53.574;9.976;2023-04-15T00:58:49;7.30;99.90
14749;DHT22;7466;53.574;9.976;2023-04-15T01:01:19;7.40;99.90
14749;DHT22;7466;53.574;9.976;2023-04-15T01:03:47;7.30;99.90
14749;DHT22;7466;53.574;9.976;2023-04-15T01:06:16;7.30;99.90
14749;DHT22;7466;53.574;9.976;2023-04-15T01:08:43;7.30;99.90
14749;DHT22;7466;53.574;9.976;2023-04-15T01:11:11;7.30;99.90
14749;DHT22;7466;53.574;9.976;2023-04-15T01:13:39;7.30;99.90
14749;DHT22;7466;53.574;9.976;2023-04-15T01:16:06;7.30;99.90
14749;DHT22;7466;53.574;9.976;2023-04-15T01:18:34;7.30;99.90
14749;DHT22;7466;53.574;9.976;2023-04-15T01:21:02;7.30;99.90
14749;DHT22;7466;53.574;9.976;2023-04-15T01:23:32;7.20;99.90
14749;DHT22;7466;53.574;9.976;2023-04-15T01:26:00;7.20;99.90
14749;DHT22;7466;53.574;9.976;2023-04-15T01:28:28;7.20;99.90
14749;DHT22;7466;53.574;9.976;2023-04-15T01:31:08;7.20;99.90
14749;DHT22;7466;53.574;9.976;2023-04-15T01:33:35;7.20;99.90
14749;DHT22;7466;53.574;9.976;2023-04-15T01:36:03;7.20;99.90
14749;DHT22;7466;53.574;9.976;2023-04-15T01:38:30;7.20;99.90
14749;DHT22;7466;53.574;9.976;2023-04-15T01:40:57;7.20;99.90
14749;DHT22;7466;53.574;9.976;2023-04-15T01:43:26;7.20;99.90
14749;DHT22;7466;53.574;9.976;2023-04-15T01:45:53;7.20;99.90
14749;DHT22;7466;53.574;9.976;2023-04-15T01:48:21;7.20;99.90
14749;DHT22;7466;53.574;9.976;2023-04-15T01:50:48;7.20;99.90
14749;DHT22;7466;53.574;9.976;2023-04-15T01:53:16;7.20;99.90
14749;DHT22;7466;53.574;9.976;2023-04-15T01:55:44;7.20;99.90
14749;DHT22;7466;53.574;9.976;2023-04-15T01:58:12;7.20;99.90
14749;DHT22;7466;53.574;9.976;2023-04-15T02:00:41;7.20;99.90
14749;DHT22;7466;53.574;9.976;2023-04-15T02:03:08;7.20;99.90
14749;DHT22;7466;53.574;9.976;2023-04-15T02:05:35;7.20;99.90
14749;DHT22;7466;53.574;9.976;2023-04-15T02:08:02;7.20;99.90
14749;DHT22;7466;53.574;9.976;2023-04-15T02:10:29;7.30;99.90
14749;DHT22;7466;53.574;9.976;2023-04-15T02:12:56;7.30;99.90
14749;DHT22;7466;53.574;9.976;2023-04-15T02:15:23;7.30;99.90
14749;DHT22;7466;53.574;9.976;2023-04-15T02:17:51;7.30;99.90
14749;DHT22;7466;53.574;9.976;2023-04-15T02:20:20;7.20;99.90
14749;DHT22;7466;53.574;9.976;2023-04-15T02:22:47;7.20;99.90
14749;DHT22;7466;53.574;9.976;2023-04-15T02:25:14;7.20;99.90
14749;DHT22;7466;53.574;9.976;2023-04-15T02:27:42;7.20;99.90
14749;DHT22;7466;53.574;9.976;2023-04-15T02:30:09;7.20;99.90
14749;DHT22;7466;53.574;9.976;2023-04-15T02:32:36;7.20;99.90
14749;DHT22;7466;53.574;9.976;2023-04-15T02:35:06;7.30;99.90
14749;DHT22;7466;53.574;9.976;2023-04-15T02:37:35;7.30;99.90
14749;DHT22;7466;53.574;9.976;2023-04-15T02:40:07;7.30;99.90
14749;DHT22;7466;53.574;9.976;2023-04-15T02:42:36;7.30;99.90
14749;DHT22;7466;53.574;9.976;2023-04-15T02:45:04;7.40;99.90
14749;DHT22;7466;53.574;9.976;2023-04-15T02:47:31;7.40;99.90
14749;DHT22;7466;53.574;9.976;2023-04-15T02:49:58;7.30;99.90
14749;DHT22;7466;53.574;9.976;2023-04-15T02:52:27;7.30;99.90
14749;DHT22;7466;53.574;9.976;2023-04-15T02:54:54;7.30;99.90
14749;DHT22;7466;53.574;9.976;2023-04-15T02:57:25;7.30;99.90
14749;DHT22;7466;53.574;9.976;2023-04-15T02:59:52;7.30;99.90
14749;DHT22;7466;53.574;9.976;2023-04-15T03:02:19;7.40;99.90
14749;DHT22;7466;53.574;9.976;2023-04-15T03:04:45;7.30;99.90
14749;DHT22;7466;53.574;9.976;2023-04-15T03:07:13;7.30;99.90
14749;DHT22;7466;53.574;9.976;2023-04-15T03:09:41;7.30;99.90
14749;DHT22;7466;53.574;9.976;2023-04-15T03:12:08;7.40;99.90
14749;DHT22;7466;53.574;9.976;2023-04-15T03:14:35;7.40;99.90
14749;DHT22;7466;53.574;9.976;2023-04-15T03:17:01;7.40;99.90
14749;DHT22;7466;53.574;9.976;2023-04-15T03:19:28;7.40;99.90
14749;DHT22;7466;53.574;9.976;2023-04-15T03:21:56;7.30;99.90
14749;DHT22;7466;53.574;9.976;2023-04-15T03:24:23;7.30;99.90
14749;DHT22;7466;53.574;9.976;2023-04-15T03:26:51;7.30;99.90
14749;DHT22;7466;53.574;9.976;2023-04-15T03:29:19;7.40;99.90
14749;DHT22;7466;53.574;9.976;2023-04-15T03:31:46;7.30;99.90
14749;DHT22;7466;53.574;9.976;2023-04-15T03:34:13;7.30;99.90
14749;DHT22;7466;53.574;9.976;2023-04-15T03:36:40;7.30;99.90
14749;DHT22;7466;53.574;9.976;2023-04-15T03:39:07;7.30;99.90
14749;DHT22;7466;53.574;9.976;2023-04-15T03:41:34;7.30;99.90
14749;DHT22;7466;53.574;9.976;2023-04-15T03:44:02;7.40;99.90
14749;DHT22;7466;53.574;9.976;2023-04-15T03:46:29;7.40;99.90
14749;DHT22;7466;53.574;9.976;2023-04-15T03:48:57;7.40;99.90
14749;DHT22;7466;53.574;9.976;2023-04-15T03:51:24;7.40;99.90
14749;DHT22;7466;53.574;9.976;2023-04-15T03:53:51;7.50;99.90
14749;DHT22;7466;53.574;9.976;2023-04-15T03:56:18;7.40;99.90
14749;DHT22;7466;53.574;9.976;2023-04-15T03:58:45;7.30;99.90
14749;DHT22;7466;53.574;9.976;2023-04-15T04:01:14;7.30;99.90
14749;DHT22;7466;53.574;9.976;2023-04-15T04:03:41;7.40;99.90
14749;DHT22;7466;53.574;9.976;2023-04-15T04:06:07;7.30;99.90
14749;DHT22;7466;53.574;9.976;2023-04-15T04:08:34;7.40;99.90
14749;DHT22;7466;53.574;9.976;2023-04-15T04:11:01;7.40;99.90
14749;DHT22;7466;53.574;9.976;2023-04-15T04:13:28;7.40;99.90
14749;DHT22;7466;53.574;9.976;2023-04-15T04:15:55;7.40;99.90
14749;DHT22;7466;53.574;9.976;2023-04-15T04:18:23;7.40;99.90
14749;DHT22;7466;53.574;9.976;2023-04-15T04:20:50;7.40;99.90
14749;DHT22;7466;53.574;9.976;2023-04-15T04:23:17;7.40;99.90
14749;DHT22;7466;53.574;9.976;2023-04-15T04:25:44;7.40;99.90
14749;DHT22;7466;53.574;9.976;2023-04-15T04:28:12;7.40;99.90
14749;DHT22;7466;53.574;9.976;2023-04-15T04:30:39;7.40;99.90
14749;DHT22;7466;53.574;9.976;2023-04-15T04:33:06;7.40;99.90
14749;DHT22;7466;53.574;9.976;2023-04-15T04:35:34;7.50;99.90
14749;DHT22;7466;53.574;9.976;2023-04-15T04:38:02;7.50;99.90
14749;DHT22;7466;53.574;9.976;2023-04-15T04:40:29;7.50;99.90
14749;DHT22;7466;53.574;9.976;2023-04-15T04:42:56;7.50;99.90
14749;DHT22;7466;53.574;9.976;2023-04-15T04:45:23;7.50;99.90
14749;DHT22;7466;53.574;9.976;2023-04-15T04:47:50;7.50;99.90
14749;DHT22;7466;53.574;9.976;2023-04-15T04:50:17;7.60;99.90
14749;DHT22;7466;53.574;9.976;2023-04-15T04:52:45;7.50;99.90
14749;DHT22;7466;53.574;9.976;2023-04-15T04:55:12;7.60;99.90
14749;DHT22;7466;53.574;9.976;2023-04-15T04:57:39;7.50;99.90
14749;DHT22;7466;53.574;9.976;2023-04-15T05:00:07;7.60;99.90
14749;DHT22;7466;53.574;9.976;2023-04-15T05:02:34;7.60;99.90
14749;DHT22;7466;53.574;9.976;2023-04-15T05:05:01;7.60;99.90
14749;DHT22;7466;53.574;9.976;2023-04-15T05:07:28;7.60;99.90
14749;DHT22;7466;53.574;9.976;2023-04-15T05:09:57;7.60;99.90
14749;DHT22;7466;53.574;9.976;2023-04-15T05:12:24;7.60;99.90
14749;DHT22;7466;53.574;9.976;2023-04-15T05:14:51;7.60;99.90
14749;DHT22;7466;53.574;9.976;2023-04-15T05:17:17;7.60;99.90
14749;DHT22;7466;53.574;9.976;2023-04-15T05:19:44;7.70;99.90
14749;DHT22;7466;53.574;9.976;2023-04-15T05:22:11;7.70;99.90
14749;DHT22;7466;53.574;9.976;2023-04-15T05:24:38;7.70;99.90
14749;DHT22;7466;53.574;9.976;2023-04-15T05:27:07;7.70;99.90
14749;DHT22;7466;53.574;9.976;2023-04-15T05:29:36;7.70;99.90
14749;DHT22;7466;53.574;9.976;2023-04-15T05:32:04;7.70;99.90
14749;DHT22;7466;53.574;9.976;2023-04-15T05:34:31;7.70;99.90
14749;DHT22;7466;53.574;9.976;2023-04-15T05:36:58;7.70;99.90
14749;DHT22;7466;53.574;9.976;2023-04-15T05:39:25;7.70;99.90
14749;DHT22;7466;53.574;9.976;2023-04-15T05:41:52;7.80;99.90
14749;DHT22;7466;53.574;9.976;2023-04-15T05:44:20;7.70;99.90
14749;DHT22;7466;53.574;9.976;2023-04-15T05:46:47;7.80;99.90
14749;DHT22;7466;53.574;9.976;2023-04-15T05:49:14;7.70;99.90
14749;DHT22;7466;53.574;9.976;2023-04-15T05:51:41;7.70;99.90
14749;DHT22;7466;53.574;9.976;2023-04-15T05:54:08;7.70;99.90
14749;DHT22;7466;53.574;9.976;2023-04-15T05:56:37;7.70;99.90
14749;DHT22;7466;53.574;9.976;2023-04-15T05:59:03;7.70;99.90
14749;DHT22;7466;53.574;9.976;2023-04-15T06:01:32;7.70;99.90
14749;DHT22;7466;53.574;9.976;2023-04-15T06:04:00;7.80;99.90
14749;DHT22;7466;53.574;9.976;2023-04-15T06:06:27;7.80;99.90
14749;DHT22;7466;53.574;9.976;2023-04-15T06:09:04;7.80;99.90
14749;DHT22;7466;53.574;9.976;2023-04-15T06:11:36;7.90;99.90
14749;DHT22;7466;53.574;9.976;2023-04-15T06:14:05;7.80;99.90
14749;DHT22;7466;53.574;9.976;2023-04-15T06:16:33;7.80;99.90
14749;DHT22;7466;53.574;9.976;2023-04-15T06:19:01;7.80;99.90
14749;DHT22;7466;53.574;9.976;2023-04-15T06:21:34;7.90;99.90
14749;DHT22;7466;53.574;9.976;2023-04-15T06:24:01;7.90;99.90
14749;DHT22;7466;53.574;9.976;2023-04-15T06:26:28;7.90;99.90
14749;DHT22;7466;53.574;9.976;2023-04-15T06:28:55;7.90;99.90
14749;DHT22;7466;53.574;9.976;2023-04-15T06:31:22;7.90;99.90
14749;DHT22;7466;53.574;9.976;2023-04-15T06:33:50;7.90;99.90
14749;DHT22;7466;53.574;9.976;2023-04-15T06:36:17;8.00;99.90
14749;DHT22;7466;53.574;9.976;2023-04-15T06:38:44;8.00;99.90
14749;DHT22;7466;53.574;9.976;2023-04-15T06:41:11;8.00;99.90
14749;DHT22;7466;53.574;9.976;2023-04-15T06:43:38;8.00;99.90
14749;DHT22;7466;53.574;9.976;2023-04-15T06:46:05;8.00;99.90
14749;DHT22;7466;53.574;9.976;2023-04-15T06:48:32;8.00;99.90
14749;DHT22;7466;53.574;9.976;2023-04-15T06:51:00;8.10;99.90
14749;DHT22;7466;53.574;9.976;2023-04-15T06:53:28;8.10;99.90
14749;DHT22;7466;53.574;9.976;2023-04-15T06:55:55;8.10;99.90
14749;DHT22;7466;53.574;9.976;2023-04-15T06:58:22;8.10;99.90
14749;DHT22;7466;53.574;9.976;2023-04-15T07:00:49;8.10;99.90
14749;DHT22;7466;53.574;9.976;2023-04-15T07:03:17;8.10;99.90
14749;DHT22;7466;53.574;9.976;2023-04-15T07:05:43;8.10;99.90
14749;DHT22;7466;53.574;9.976;2023-04-15T07:08:12;8.20;99.90
14749;DHT22;7466;53.574;9.976;2023-04-15T07:10:39;8.30;99.90
14749;DHT22;7466;53.574;9.976;2023-04-15T07:13:06;8.20;99.90
14749;DHT22;7466;53.574;9.976;2023-04-15T07:15:33;8.20;99.90
14749;DHT22;7466;53.574;9.976;2023-04-15T07:18:00;8.20;99.90
14749;DHT22;7466;53.574;9.976;2023-04-15T07:20:27;8.20;99.90
14749;DHT22;7466;53.574;9.976;2023-04-15T07:22:53;8.40;99.90
14749;DHT22;7466;53.574;9.976;2023-04-15T07:25:21;8.30;99.90
14749;DHT22;7466;53.574;9.976;2023-04-15T07:27:48;8.40;99.90
14749;DHT22;7466;53.574;9.976;2023-04-15T07:30:15;8.40;99.90
14749;DHT22;7466;53.574;9.976;2023-04-15T07:32:42;8.40;99.90
14749;DHT22;7466;53.574;9.976;2023-04-15T07:35:09;8.40;99.90
14749;DHT22;7466;53.574;9.976;2023-04-15T07:37:36;8.40;99.90
14749;DHT22;7466;53.574;9.976;2023-04-15T07:40:03;8.40;99.90
14749;DHT22;7466;53.574;9.976;2023-04-15T07:42:33;8.50;99.90
14749;DHT22;7466;53.574;9.976;2023-04-15T07:45:01;8.50;99.90
14749;DHT22;7466;53.574;9.976;2023-04-15T07:47:28;8.50;99.90
14749;DHT22;7466;53.574;9.976;2023-04-15T07:49:54;8.40;99.90
14749;DHT22;7466;53.574;9.976;2023-04-15T07:52:22;8.50;99.90
14749;DHT22;7466;53.574;9.976;2023-04-15T07:54:48;8.40;99.90
14749;DHT22;7466;53.574;9.976;2023-04-15T07:57:15;8.50;99.90
14749;DHT22;7466;53.574;9.976;2023-04-15T07:59:44;8.50;99.90
14749;DHT22;7466;53.574;9.976;2023-04-15T08:02:11;8.60;99.90
14749;DHT22;7466;53.574;9.976;2023-04-15T08:04:38;8.60;99.90
14749;DHT22;7466;53.574;9.976;2023-04-15T08:07:05;8.60;99.90
14749;DHT22;7466;53.574;9.976;2023-04-15T08:09:32;8.60;99.90
14749;DHT22;7466;53.574;9.976;2023-04-15T08:11:59;8.70;99.90
14749;DHT22;7466;53.574;9.976;2023-04-15T08:14:26;8.60;99.90
14749;DHT22;7466;53.574;9.976;2023-04-15T08:16:54;8.60;99.90
14749;DHT22;7466;53.574;9.976;2023-04-15T08:19:21;8.70;99.90
14749;DHT22;7466;53.574;9.976;2023-04-15T08:21:48;8.60;99.90
14749;DHT22;7466;53.574;9.976;2023-04-15T08:24:15;8.70;99.90
14749;DHT22;7466;53.574;9.976;2023-04-15T08:26:42;8.70;99.90
14749;DHT22;7466;53.574;9.976;2023-04-15T08:29:09;8.80;99.90
14749;DHT22;7466;53.574;9.976;2023-04-15T08:31:36;8.70;99.90
14749;DHT22;7466;53.574;9.976;2023-04-15T08:34:05;8.80;99.90
14749;DHT22;7466;53.574;9.976;2023-04-15T08:36:32;8.80;99.90
14749;DHT22;7466;53.574;9.976;2023-04-15T08:38:58;8.70;99.90
14749;DHT22;7466;53.574;9.976;2023-04-15T08:41:30;8.70;99.90
14749;DHT22;7466;53.574;9.976;2023-04-15T08:44:03;8.80;99.90
14749;DHT22;7466;53.574;9.976;2023-04-15T08:46:30;8.80;99.90
14749;DHT22;7466;53.574;9.976;2023-04-15T08:48:59;8.80;99.90
14749;DHT22;7466;53.574;9.976;2023-04-15T08:51:31;8.90;99.90
14749;DHT22;7466;53.574;9.976;2023-04-15T08:53:58;9.00;99.90
14749;DHT22;7466;53.574;9.976;2023-04-15T08:56:27;8.90;99.90
14749;DHT22;7466;53.574;9.976;2023-04-15T08:58:57;8.90;99.90
14749;DHT22;7466;53.574;9.976;2023-04-15T09:01:24;9.00;99.90
14749;DHT22;7466;53.574;9.976;2023-04-15T09:03:51;9.10;99.90
14749;DHT22;7466;53.574;9.976;2023-04-15T09:06:19;9.10;99.90
14749;DHT22;7466;53.574;9.976;2023-04-15T09:08:48;9.20;99.90
14749;DHT22;7466;53.574;9.976;2023-04-15T09:11:15;9.40;99.90
14749;DHT22;7466;53.574;9.976;2023-04-15T09:13:44;9.30;99.90
14749;DHT22;7466;53.574;9.976;2023-04-15T09:16:12;9.20;99.90
14749;DHT22;7466;53.574;9.976;2023-04-15T09:18:40;9.40;99.90
14749;DHT22;7466;53.574;9.976;2023-04-15T09:21:08;9.40;99.90
14749;DHT22;7466;53.574;9.976;2023-04-15T09:23:37;9.40;99.90
14749;DHT22;7466;53.574;9.976;2023-04-15T09:26:06;9.50;99.90
14749;DHT22;7466;53.574;9.976;2023-04-15T09:28:34;9.60;99.90
14749;DHT22;7466;53.574;9.976;2023-04-15T09:31:06;9.80;99.90
14749;DHT22;7466;53.574;9.976;2023-04-15T09:33:34;9.90;99.90
14749;DHT22;7466;53.574;9.976;2023-04-15T09:36:03;9.90;99.90
14749;DHT22;7466;53.574;9.976;2023-04-15T09:38:30;9.70;99.90
14749;DHT22;7466;53.574;9.976;2023-04-15T09:40:58;9.70;99.90
14749;DHT22;7466;53.574;9.976;2023-04-15T09:43:38;9.90;99.90
14749;DHT22;7466;53.574;9.976;2023-04-15T09:46:05;9.90;99.90
14749;DHT22;7466;53.574;9.976;2023-04-15T09:48:32;10.10;99.90
14749;DHT22;7466;53.574;9.976;2023-04-15T09:51:00;10.30;99.90
14749;DHT22;7466;53.574;9.976;2023-04-15T09:53:27;10.60;99.90
14749;DHT22;7466;53.574;9.976;2023-04-15T09:55:55;10.50;99.90
14749;DHT22;7466;53.574;9.976;2023-04-15T09:58:24;10.60;99.90
14749;DHT22;7466;53.574;9.976;2023-04-15T10:00:54;10.80;99.90
14749;DHT22;7466;53.574;9.976;2023-04-15T10:03:22;10.70;99.90
14749;DHT22;7466;53.574;9.976;2023-04-15T10:05:52;10.80;99.90
14749;DHT22;7466;53.574;9.976;2023-04-15T10:08:21;10.70;99.90
14749;DHT22;7466;53.574;9.976;2023-04-15T10:10:49;11.10;99.90
14749;DHT22;7466;53.574;9.976;2023-04-15T10:13:18;11.00;99.90
14749;DHT22;7466;53.574;9.976;2023-04-15T10:15:50;11.00;99.90
14749;DHT22;7466;53.574;9.976;2023-04-15T10:18:24;11.10;99.90
14749;DHT22;7466;53.574;9.976;2023-04-15T10:20:52;11.30;99.90
14749;DHT22;7466;53.574;9.976;2023-04-15T10:23:19;11.30;99.90
14749;DHT22;7466;53.574;9.976;2023-04-15T10:25:46;11.50;99.90
14749;DHT22;7466;53.574;9.976;2023-04-15T10:28:15;11.60;99.90
14749;DHT22;7466;53.574;9.976;2023-04-15T10:30:42;11.80;99.90
14749;DHT22;7466;53.574;9.976;2023-04-15T10:33:12;12.30;99.90
14749;DHT22;7466;53.574;9.976;2023-04-15T10:35:42;12.60;99.90
14749;DHT22;7466;53.574;9.976;2023-04-15T10:38:32;12.70;99.90
14749;DHT22;7466;53.574;9.976;2023-04-15T10:41:17;12.70;99.90
14749;DHT22;7466;53.574;9.976;2023-04-15T10:43:50;12.70;99.90
14749;DHT22;7466;53.574;9.976;2023-04-15T10:46:20;12.40;99.90
14749;DHT22;7466;53.574;9.976;2023-04-15T10:48:48;12.40;99.90
14749;DHT22;7466;53.574;9.976;2023-04-15T10:51:27;12.30;99.90
14749;DHT22;7466;53.574;9.976;2023-04-15T10:53:56;12.60;99.90
14749;DHT22;7466;53.574;9.976;2023-04-15T10:56:24;12.90;99.90
14749;DHT22;7466;53.574;9.976;2023-04-15T10:58:51;13.20;99.90
14749;DHT22;7466;53.574;9.976;2023-04-15T11:01:49;13.50;99.90
14749;DHT22;7466;53.574;9.976;2023-04-15T11:04:53;13.60;99.90
14749;DHT22;7466;53.574;9.976;2023-04-15T11:07:36;13.70;99.90
14749;DHT22;7466;53.574;9.976;2023-04-15T11:10:05;13.60;99.90
14749;DHT22;7466;53.574;9.976;2023-04-15T11:12:52;13.50;99.90
14749;DHT22;7466;53.574;9.976;2023-04-15T11:15:28;13.60;99.90
14749;DHT22;7466;53.574;9.976;2023-04-15T11:17:57;13.90;99.90
14749;DHT22;7466;53.574;9.976;2023-04-15T11:20:25;13.90;99.90
14749;DHT22;7466;53.574;9.976;2023-04-15T11:22:54;13.70;99.90
14749;DHT22;7466;53.574;9.976;2023-04-15T11:25:24;13.50;99.90
14749;DHT22;7466;53.574;9.976;2023-04-15T11:27:52;13.40;99.90
14749;DHT22;7466;53.574;9.976;2023-04-15T11:30:21;13.30;99.90
14749;DHT22;7466;53.574;9.976;2023-04-15T11:32:51;13.50;99.90
14749;DHT22;7466;53.574;9.976;2023-04-15T11:35:19;13.70;99.90
14749;DHT22;7466;53.574;9.976;2023-04-15T11:37:50;13.50;99.90
14749;DHT22;7466;53.574;9.976;2023-04-15T11:40:24;13.40;99.90
14749;DHT22;7466;53.574;9.976;2023-04-15T11:43:03;13.40;99.90
14749;DHT22;7466;53.574;9.976;2023-04-15T11:45:30;13.50;99.90
14749;DHT22;7466;53.574;9.976;2023-04-15T11:48:05;13.30;99.90
14749;DHT22;7466;53.574;9.976;2023-04-15T11:50:32;13.20;99.90
14749;DHT22;7466;53.574;9.976;2023-04-15T11:53:00;13.30;99.90
14749;DHT22;7466;53.574;9.976;2023-04-15T11:55:29;13.30;99.90
14749;DHT22;7466;53.574;9.976;2023-04-15T11:58:08;13.40;99.90
14749;DHT22;7466;53.574;9.976;2023-04-15T12:00:35;13.40;99.90
14749;DHT22;7466;53.574;9.976;2023-04-15T12:03:27;13.30;99.90
14749;DHT22;7466;53.574;9.976;2023-04-15T12:08:58;13.30;99.90
14749;DHT22;7466;53.574;9.976;2023-04-15T12:11:37;13.40;99.90
14749;DHT22;7466;53.574;9.976;2023-04-15T12:14:07;13.60;99.90
14749;DHT22;7466;53.574;9.976;2023-04-15T12:16:36;13.40;99.90
14749;DHT22;7466;53.574;9.976;2023-04-15T12:19:05;13.30;99.90
14749;DHT22;7466;53.574;9.976;2023-04-15T12:21:35;13.30;99.90
14749;DHT22;7466;53.574;9.976;2023-04-15T12:24:04;13.20;99.90
14749;DHT22;7466;53.574;9.976;2023-04-15T12:26:35;13.00;99.90
14749;DHT22;7466;53.574;9.976;2023-04-15T12:29:04;12.90;99.90
14749;DHT22;7466;53.574;9.976;2023-04-15T12:31:31;12.80;99.90
14749;DHT22;7466;53.574;9.976;2023-04-15T12:34:03;12.70;99.90
14749;DHT22;7466;53.574;9.976;2023-04-15T12:36:33;12.70;99.90
14749;DHT22;7466;53.574;9.976;2023-04-15T12:39:02;12.70;99.90
14749;DHT22;7466;53.574;9.976;2023-04-15T12:41:29;12.80;99.90
14749;DHT22;7466;53.574;9.976;2023-04-15T12:43:58;12.90;99.90
14749;DHT22;7466;53.574;9.976;2023-04-15T12:46:25;13.00;99.90
14749;DHT22;7466;53.574;9.976;2023-04-15T12:48:52;13.00;99.90
14749;DHT22;7466;53.574;9.976;2023-04-15T12:51:19;13.00;99.90
14749;DHT22;7466;53.574;9.976;2023-04-15T12:53:46;12.70;99.90
14749;DHT22;7466;53.574;9.976;2023-04-15T12:56:14;12.80;99.90
14749;DHT22;7466;53.574;9.976;2023-04-15T12:58:41;12.90;99.90
14749;DHT22;7466;53.574;9.976;2023-04-15T13:01:11;12.90;99.90
14749;DHT22;7466;53.574;9.976;2023-04-15T13:03:37;13.00;99.90
14749;DHT22;7466;53.574;9.976;2023-04-15T13:06:04;12.90;99.90
14749;DHT22;7466;53.574;9.976;2023-04-15T13:08:35;13.00;99.90
14749;DHT22;7466;53.574;9.976;2023-04-15T13:11:02;13.30;99.90
14749;DHT22;7466;53.574;9.976;2023-04-15T13:13:30;13.40;99.90
14749;DHT22;7466;53.574;9.976;2023-04-15T13:15:57;13.10;99.90
14749;DHT22;7466;53.574;9.976;2023-04-15T13:18:26;13.20;99.90
14749;DHT22;7466;53.574;9.976;2023-04-15T13:20:53;13.10;99.90
14749;DHT22;7466;53.574;9.976;2023-04-15T13:23:20;13.10;99.90
14749;DHT22;7466;53.574;9.976;2023-04-15T13:25:48;13.20;99.90
14749;DHT22;7466;53.574;9.976;2023-04-15T13:28:25;13.20;99.90
14749;DHT22;7466;53.574;9.976;2023-04-15T13:30:52;13.40;99.90
14749;DHT22;7466;53.574;9.976;2023-04-15T13:33:19;13.40;99.90
14749;DHT22;7466;53.574;9.976;2023-04-15T13:35:48;13.40;99.90
14749;DHT22;7466;53.574;9.976;2023-04-15T13:38:17;13.60;99.90
14749;DHT22;7466;53.574;9.976;2023-04-15T13:40:44;13.80;99.90
14749;DHT22;7466;53.574;9.976;2023-04-15T13:43:18;13.80;99.90
14749;DHT22;7466;53.574;9.976;2023-04-15T13:45:46;13.70;99.90
14749;DHT22;7466;53.574;9.976;2023-04-15T13:48:13;13.90;99.90
14749;DHT22;7466;53.574;9.976;2023-04-15T13:50:40;13.80;99.90
14749;DHT22;7466;53.574;9.976;2023-04-15T13:53:11;13.80;99.90
14749;DHT22;7466;53.574;9.976;2023-04-15T13:55:38;13.80;99.90
14749;DHT22;7466;53.574;9.976;2023-04-15T13:58:07;13.90;99.90
14749;DHT22;7466;53.574;9.976;2023-04-15T14:00:34;13.90;99.90
14749;DHT22;7466;53.574;9.976;2023-04-15T14:03:00;14.00;99.90
14749;DHT22;7466;53.574;9.976;2023-04-15T14:05:27;14.30;99.90
14749;DHT22;7466;53.574;9.976;2023-04-15T14:07:54;14.50;99.90
14749;DHT22;7466;53.574;9.976;2023-04-15T14:10:23;14.90;99.90
14749;DHT22;7466;53.574;9.976;2023-04-15T14:12:50;14.80;99.90
14749;DHT22;7466;53.574;9.976;2023-04-15T14:15:20;15.10;99.90
14749;DHT22;7466;53.574;9.976;2023-04-15T14:17:47;14.90;99.90
14749;DHT22;7466;53.574;9.976;2023-04-15T14:20:16;14.90;99.90
14749;DHT22;7466;53.574;9.976;2023-04-15T14:22:43;14.60;99.90
14749;DHT22;7466;53.574;9.976;2023-04-15T14:25:10;14.50;99.90
14749;DHT22;7466;53.574;9.976;2023-04-15T14:27:38;14.30;99.90
14749;DHT22;7466;53.574;9.976;2023-04-15T14:30:06;14.40;99.90
14749;DHT22;7466;53.574;9.976;2023-04-15T14:32:33;14.60;99.90
14749;DHT22;7466;53.574;9.976;2023-04-15T14:35:00;14.50;99.90
14749;DHT22;7466;53.574;9.976;2023-04-15T14:37:29;14.40;99.90
14749;DHT22;7466;53.574;9.976;2023-04-15T14:39:56;14.30;99.90
14749;DHT22;7466;53.574;9.976;2023-04-15T14:42:23;14.40;99.90
14749;DHT22;7466;53.574;9.976;2023-04-15T14:44:51;14.20;99.90
14749;DHT22;7466;53.574;9.976;2023-04-15T14:47:24;14.30;99.90
14749;DHT22;7466;53.574;9.976;2023-04-15T14:49:51;14.30;99.90
14749;DHT22;7466;53.574;9.976;2023-04-15T14:52:23;14.50;99.90
14749;DHT22;7466;53.574;9.976;2023-04-15T14:54:49;14.30;99.90
14749;DHT22;7466;53.574;9.976;2023-04-15T14:57:16;14.20;99.90
14749;DHT22;7466;53.574;9.976;2023-04-15T14:59:43;14.10;99.90
14749;DHT22;7466;53.574;9.976;2023-04-15T15:02:17;14.30;99.90
14749;DHT22;7466;53.574;9.976;2023-04-15T15:04:44;14.10;99.90
14749;DHT22;7466;53.574;9.976;2023-04-15T15:07:11;14.20;99.90
14749;DHT22;7466;53.574;9.976;2023-04-15T15:09:38;14.20;99.90
14749;DHT22;7466;53.574;9.976;2023-04-15T15:12:05;14.20;99.90
14749;DHT22;7466;53.574;9.976;2023-04-15T15:14:33;14.40;99.90
14749;DHT22;7466;53.574;9.976;2023-04-15T15:16:59;14.30;99.90
14749;DHT22;7466;53.574;9.976;2023-04-15T15:19:28;14.00;99.90
14749;DHT22;7466;53.574;9.976;2023-04-15T15:21:54;13.80;99.90
14749;DHT22;7466;53.574;9.976;2023-04-15T15:24:21;13.70;99.90
14749;DHT22;7466;53.574;9.976;2023-04-15T15:26:49;13.70;99.90
14749;DHT22;7466;53.574;9.976;2023-04-15T15:29:15;13.80;99.90
14749;DHT22;7466;53.574;9.976;2023-04-15T15:31:48;13.70;99.90
14749;DHT22;7466;53.574;9.976;2023-04-15T15:34:15;13.60;99.90
14749;DHT22;7466;53.574;9.976;2023-04-15T15:36:44;13.50;99.90
14749;DHT22;7466;53.574;9.976;2023-04-15T15:39:10;13.60;99.90
14749;DHT22;7466;53.574;9.976;2023-04-15T15:41:37;13.70;99.90
14749;DHT22;7466;53.574;9.976;2023-04-15T15:44:04;13.60;99.90
14749;DHT22;7466;53.574;9.976;2023-04-15T15:46:31;13.50;99.90
14749;DHT22;7466;53.574;9.976;2023-04-15T15:48:59;13.50;99.90
14749;DHT22;7466;53.574;9.976;2023-04-15T15:51:27;13.50;99.90
14749;DHT22;7466;53.574;9.976;2023-04-15T15:53:56;13.50;99.90
14749;DHT22;7466;53.574;9.976;2023-04-15T15:56:23;13.30;99.90
14749;DHT22;7466;53.574;9.976;2023-04-15T15:58:50;13.10;99.90
14749;DHT22;7466;53.574;9.976;2023-04-15T16:01:17;13.00;99.90
14749;DHT22;7466;53.574;9.976;2023-04-15T16:03:43;12.90;99.90
14749;DHT22;7466;53.574;9.976;2023-04-15T16:06:10;13.00;99.90